sensor_id;sensor_type;location;lat;lon;timestamp;P1;durP1;ratioP1;P2;durP2;ratioP2
29940;SDS011;16801;53.562;10.038;2023-07-24T00:01:05;4.45;;;1.83;;
29940;SDS011;16801;53.562;10.038;2023-07-24T00:04:27;3.17;;;2.42;;
29940;SDS011;16801;53.562;10.038;2023-07-24T00:07:48;2.45;;;2.25;;
29940;SDS011;16801;53.562;10.038;2023-07-24T00:11:11;2.58;;;2.38;;
29940;SDS011;16801;53.562;10.038;2023-07-24T00:14:32;4.53;;;1.88;;
29940;SDS011;16801;53.562;10.038;2023-07-24T00:17:53;1.40;;;1.30;;
29940;SDS011;16801;53.562;10.038;2023-07-24T00:21:14;2.30;;;2.10;;
29940;SDS011;16801;53.562;10.038;2023-07-24T00:24:36;12.68;;;2.80;;
29940;SDS011;16801;53.562;10.038;2023-07-24T00:27:58;4.13;;;2.67;;
29940;SDS011;16801;53.562;10.038;2023-07-24T00:31:19;4.30;;;2.13;;
29940;SDS011;16801;53.562;10.038;2023-07-24T00:34:41;3.33;;;3.00;;
29940;SDS011;16801;53.562;10.038;2023-07-24T00:38:02;2.47;;;2.28;;
29940;SDS011;16801;53.562;10.038;2023-07-24T00:41:23;2.45;;;2.25;;
29940;SDS011;16801;53.562;10.038;2023-07-24T00:44:46;2.42;;;2.17;;
29940;SDS011;16801;53.562;10.038;2023-07-24T00:48:07;2.88;;;2.05;;
29940;SDS011;16801;53.562;10.038;2023-07-24T00:51:32;2.38;;;2.15;;
29940;SDS011;16801;53.562;10.038;2023-07-24T00:54:54;2.28;;;2.08;;
29940;SDS011;16801;53.562;10.038;2023-07-24T00:58:15;3.22;;;2.88;;
29940;SDS011;16801;53.562;10.038;2023-07-24T01:01:38;7.72;;;2.42;;
29940;SDS011;16801;53.562;10.038;2023-07-24T01:05:00;4.40;;;2.00;;
29940;SDS011;16801;53.562;10.038;2023-07-24T01:08:21;3.33;;;2.40;;
29940;SDS011;16801;53.562;10.038;2023-07-24T01:11:44;2.00;;;1.90;;
29940;SDS011;16801;53.562;10.038;2023-07-24T01:15:09;2.83;;;2.63;;
29940;SDS011;16801;53.562;10.038;2023-07-24T01:18:35;2.30;;;2.10;;
29940;SDS011;16801;53.562;10.038;2023-07-24T01:22:01;2.33;;;2.13;;
29940;SDS011;16801;53.562;10.038;2023-07-24T01:25:31;2.42;;;2.22;;
29940;SDS011;16801;53.562;10.038;2023-07-24T01:28:58;2.63;;;2.38;;
29940;SDS011;16801;53.562;10.038;2023-07-24T01:32:19;3.22;;;2.20;;
29940;SDS011;16801;53.562;10.038;2023-07-24T01:35:41;1.98;;;1.88;;
29940;SDS011;16801;53.562;10.038;2023-07-24T01:39:05;3.65;;;2.42;;
29940;SDS011;16801;53.562;10.038;2023-07-24T01:42:27;2.55;;;2.35;;
29940;SDS011;16801;53.562;10.038;2023-07-24T01:45:50;2.60;;;2.40;;
29940;SDS011;16801;53.562;10.038;2023-07-24T01:49:11;2.17;;;1.98;;
29940;SDS011;16801;53.562;10.038;2023-07-24T01:52:36;2.63;;;2.42;;
29940;SDS011;16801;53.562;10.038;2023-07-24T01:55:58;10.93;;;3.15;;
29940;SDS011;16801;53.562;10.038;2023-07-24T01:59:19;3.17;;;2.85;;
29940;SDS011;16801;53.562;10.038;2023-07-24T02:02:41;2.55;;;2.38;;
29940;SDS011;16801;53.562;10.038;2023-07-24T02:06:03;2.13;;;1.98;;
29940;SDS011;16801;53.562;10.038;2023-07-24T02:09:24;3.00;;;2.30;;
29940;SDS011;16801;53.562;10.038;2023-07-24T02:12:46;2.75;;;2.55;;
29940;SDS011;16801;53.562;10.038;2023-07-24T02:16:07;1.95;;;1.85;;
29940;SDS011;16801;53.562;10.038;2023-07-24T02:19:30;3.13;;;2.92;;
29940;SDS011;16801;53.562;10.038;2023-07-24T02:22:51;3.55;;;3.25;;
29940;SDS011;16801;53.562;10.038;2023-07-24T02:26:12;3.17;;;2.95;;
29940;SDS011;16801;53.562;10.038;2023-07-24T02:29:34;2.47;;;2.28;;
29940;SDS011;16801;53.562;10.038;2023-07-24T02:32:55;1.92;;;1.83;;
29940;SDS011;16801;53.562;10.038;2023-07-24T02:36:18;3.72;;;3.03;;
29940;SDS011;16801;53.562;10.038;2023-07-24T02:39:39;2.65;;;2.40;;
29940;SDS011;16801;53.562;10.038;2023-07-24T02:43:00;4.05;;;3.45;;
29940;SDS011;16801;53.562;10.038;2023-07-24T02:46:22;3.40;;;2.83;;
29940;SDS011;16801;53.562;10.038;2023-07-24T02:49:44;4.18;;;3.28;;
29940;SDS011;16801;53.562;10.038;2023-07-24T02:53:07;3.72;;;3.42;;
29940;SDS011;16801;53.562;10.038;2023-07-24T02:56:28;3.60;;;3.30;;
29940;SDS011;16801;53.562;10.038;2023-07-24T02:59:49;3.47;;;3.17;;
29940;SDS011;16801;53.562;10.038;2023-07-24T03:03:11;3.30;;;3.00;;
29940;SDS011;16801;53.562;10.038;2023-07-24T03:06:33;3.55;;;3.25;;
29940;SDS011;16801;53.562;10.038;2023-07-24T03:09:55;2.90;;;2.60;;
29940;SDS011;16801;53.562;10.038;2023-07-24T03:13:17;2.92;;;2.72;;
29940;SDS011;16801;53.562;10.038;2023-07-24T03:16:38;4.05;;;2.50;;
29940;SDS011;16801;53.562;10.038;2023-07-24T03:20:07;3.47;;;2.83;;
29940;SDS011;16801;53.562;10.038;2023-07-24T03:23:29;3.50;;;2.70;;
29940;SDS011;16801;53.562;10.038;2023-07-24T03:26:52;3.70;;;2.25;;
29940;SDS011;16801;53.562;10.038;2023-07-24T03:30:14;2.30;;;2.13;;
29940;SDS011;16801;53.562;10.038;2023-07-24T03:33:35;3.22;;;2.92;;
29940;SDS011;16801;53.562;10.038;2023-07-24T03:36:57;3.80;;;3.20;;
29940;SDS011;16801;53.562;10.038;2023-07-24T03:40:18;2.83;;;2.63;;
29940;SDS011;16801;53.562;10.038;2023-07-24T03:43:40;3.33;;;2.90;;
29940;SDS011;16801;53.562;10.038;2023-07-24T03:47:02;3.10;;;2.80;;
29940;SDS011;16801;53.562;10.038;2023-07-24T03:50:23;3.25;;;2.95;;
29940;SDS011;16801;53.562;10.038;2023-07-24T03:53:45;3.90;;;2.97;;
29940;SDS011;16801;53.562;10.038;2023-07-24T03:57:07;2.72;;;2.53;;
29940;SDS011;16801;53.562;10.038;2023-07-24T04:00:29;3.72;;;3.42;;
29940;SDS011;16801;53.562;10.038;2023-07-24T04:03:51;5.40;;;3.75;;
29940;SDS011;16801;53.562;10.038;2023-07-24T04:07:12;2.90;;;2.55;;
29940;SDS011;16801;53.562;10.038;2023-07-24T04:10:33;3.33;;;3.05;;
29940;SDS011;16801;53.562;10.038;2023-07-24T04:13:55;3.88;;;3.47;;
29940;SDS011;16801;53.562;10.038;2023-07-24T04:17:17;4.05;;;3.75;;
29940;SDS011;16801;53.562;10.038;2023-07-24T04:20:38;4.82;;;3.88;;
29940;SDS011;16801;53.562;10.038;2023-07-24T04:23:59;4.22;;;3.15;;
29940;SDS011;16801;53.562;10.038;2023-07-24T04:27:21;3.85;;;3.50;;
29940;SDS011;16801;53.562;10.038;2023-07-24T04:30:42;3.25;;;3.05;;
29940;SDS011;16801;53.562;10.038;2023-07-24T04:34:05;9.13;;;4.53;;
29940;SDS011;16801;53.562;10.038;2023-07-24T04:37:26;3.53;;;3.33;;
29940;SDS011;16801;53.562;10.038;2023-07-24T04:40:48;4.60;;;4.10;;
29940;SDS011;16801;53.562;10.038;2023-07-24T04:44:09;4.45;;;3.72;;
29940;SDS011;16801;53.562;10.038;2023-07-24T04:47:30;4.72;;;3.25;;
29940;SDS011;16801;53.562;10.038;2023-07-24T04:50:54;4.30;;;3.90;;
29940;SDS011;16801;53.562;10.038;2023-07-24T04:54:16;4.00;;;3.65;;
29940;SDS011;16801;53.562;10.038;2023-07-24T04:57:37;3.92;;;3.47;;
29940;SDS011;16801;53.562;10.038;2023-07-24T05:01:01;4.13;;;3.80;;
29940;SDS011;16801;53.562;10.038;2023-07-24T05:04:23;3.35;;;2.95;;
29940;SDS011;16801;53.562;10.038;2023-07-24T05:07:45;4.63;;;3.53;;
29940;SDS011;16801;53.562;10.038;2023-07-24T05:11:07;2.83;;;2.58;;
29940;SDS011;16801;53.562;10.038;2023-07-24T05:14:28;3.53;;;3.20;;
29940;SDS011;16801;53.562;10.038;2023-07-24T05:17:50;4.47;;;3.08;;
29940;SDS011;16801;53.562;10.038;2023-07-24T05:21:11;6.32;;;3.47;;
29940;SDS011;16801;53.562;10.038;2023-07-24T05:24:34;4.93;;;3.42;;
29940;SDS011;16801;53.562;10.038;2023-07-24T05:27:55;3.92;;;3.50;;
29940;SDS011;16801;53.562;10.038;2023-07-24T05:31:17;3.88;;;3.47;;
29940;SDS011;16801;53.562;10.038;2023-07-24T05:34:38;5.05;;;4.03;;
29940;SDS011;16801;53.562;10.038;2023-07-24T05:37:59;4.00;;;3.05;;
29940;SDS011;16801;53.562;10.038;2023-07-24T05:41:22;4.75;;;3.78;;
29940;SDS011;16801;53.562;10.038;2023-07-24T05:44:44;4.18;;;3.28;;
29940;SDS011;16801;53.562;10.038;2023-07-24T05:48:05;3.35;;;3.15;;
29940;SDS011;16801;53.562;10.038;2023-07-24T05:51:27;4.30;;;3.30;;
29940;SDS011;16801;53.562;10.038;2023-07-24T05:54:48;3.53;;;3.10;;
29940;SDS011;16801;53.562;10.038;2023-07-24T05:58:11;3.67;;;2.70;;
29940;SDS011;16801;53.562;10.038;2023-07-24T06:01:32;3.10;;;2.90;;
29940;SDS011;16801;53.562;10.038;2023-07-24T06:04:54;3.97;;;3.67;;
29940;SDS011;16801;53.562;10.038;2023-07-24T06:08:15;3.83;;;3.53;;
29940;SDS011;16801;53.562;10.038;2023-07-24T06:11:37;4.28;;;3.78;;
29940;SDS011;16801;53.562;10.038;2023-07-24T06:14:59;5.47;;;3.13;;
29940;SDS011;16801;53.562;10.038;2023-07-24T06:18:20;3.80;;;3.55;;
29940;SDS011;16801;53.562;10.038;2023-07-24T06:21:42;3.50;;;3.25;;
29940;SDS011;16801;53.562;10.038;2023-07-24T06:25:03;4.05;;;3.63;;
29940;SDS011;16801;53.562;10.038;2023-07-24T06:28:25;3.03;;;2.83;;
29940;SDS011;16801;53.562;10.038;2023-07-24T06:31:48;4.05;;;3.63;;
29940;SDS011;16801;53.562;10.038;2023-07-24T06:35:09;4.43;;;4.03;;
29940;SDS011;16801;53.562;10.038;2023-07-24T06:38:31;4.18;;;3.78;;
29940;SDS011;16801;53.562;10.038;2023-07-24T06:41:52;3.97;;;3.67;;
29940;SDS011;16801;53.562;10.038;2023-07-24T06:45:14;3.22;;;2.78;;
29940;SDS011;16801;53.562;10.038;2023-07-24T06:48:37;3.30;;;3.03;;
29940;SDS011;16801;53.562;10.038;2023-07-24T06:51:58;5.05;;;3.50;;
29940;SDS011;16801;53.562;10.038;2023-07-24T06:55:19;4.70;;;3.97;;
29940;SDS011;16801;53.562;10.038;2023-07-24T06:58:41;3.25;;;3.00;;
29940;SDS011;16801;53.562;10.038;2023-07-24T07:02:02;3.47;;;3.25;;
29940;SDS011;16801;53.562;10.038;2023-07-24T07:05:25;4.00;;;3.28;;
29940;SDS011;16801;53.562;10.038;2023-07-24T07:08:46;3.75;;;3.42;;
29940;SDS011;16801;53.562;10.038;2023-07-24T07:12:08;3.90;;;3.47;;
29940;SDS011;16801;53.562;10.038;2023-07-24T07:15:29;3.55;;;3.25;;
29940;SDS011;16801;53.562;10.038;2023-07-24T07:18:51;15.55;;;4.07;;
29940;SDS011;16801;53.562;10.038;2023-07-24T07:22:13;2.97;;;2.72;;
29940;SDS011;16801;53.562;10.038;2023-07-24T07:25:35;3.15;;;2.95;;
29940;SDS011;16801;53.562;10.038;2023-07-24T07:28:57;3.40;;;3.10;;
29940;SDS011;16801;53.562;10.038;2023-07-24T07:32:18;2.90;;;2.70;;
29940;SDS011;16801;53.562;10.038;2023-07-24T07:35:39;3.45;;;3.15;;
29940;SDS011;16801;53.562;10.038;2023-07-24T07:39:02;5.38;;;3.45;;
29940;SDS011;16801;53.562;10.038;2023-07-24T07:42:23;3.80;;;3.22;;
29940;SDS011;16801;53.562;10.038;2023-07-24T07:45:44;4.03;;;3.63;;
29940;SDS011;16801;53.562;10.038;2023-07-24T07:49:07;5.38;;;3.58;;
29940;SDS011;16801;53.562;10.038;2023-07-24T07:52:28;3.65;;;3.33;;
29940;SDS011;16801;53.562;10.038;2023-07-24T07:55:56;3.88;;;3.58;;
29940;SDS011;16801;53.562;10.038;2023-07-24T07:59:18;3.83;;;3.53;;
29940;SDS011;16801;53.562;10.038;2023-07-24T08:02:39;4.40;;;4.10;;
29940;SDS011;16801;53.562;10.038;2023-07-24T08:06:01;4.57;;;4.13;;
29940;SDS011;16801;53.562;10.038;2023-07-24T08:09:22;8.52;;;4.28;;
29940;SDS011;16801;53.562;10.038;2023-07-24T08:12:45;4.28;;;3.88;;
29940;SDS011;16801;53.562;10.038;2023-07-24T08:16:12;2.75;;;2.55;;
29940;SDS011;16801;53.562;10.038;2023-07-24T08:19:37;4.20;;;3.80;;
29940;SDS011;16801;53.562;10.038;2023-07-24T08:22:58;4.93;;;4.45;;
29940;SDS011;16801;53.562;10.038;2023-07-24T08:26:20;4.68;;;4.38;;
29940;SDS011;16801;53.562;10.038;2023-07-24T08:29:42;4.13;;;3.72;;
29940;SDS011;16801;53.562;10.038;2023-07-24T08:33:04;4.97;;;4.57;;
29940;SDS011;16801;53.562;10.038;2023-07-24T08:36:25;4.15;;;3.85;;
29940;SDS011;16801;53.562;10.038;2023-07-24T08:39:46;6.25;;;4.55;;
29940;SDS011;16801;53.562;10.038;2023-07-24T08:43:09;4.68;;;4.32;;
29940;SDS011;16801;53.562;10.038;2023-07-24T08:46:31;5.22;;;4.72;;
29940;SDS011;16801;53.562;10.038;2023-07-24T08:49:58;4.80;;;4.35;;
29940;SDS011;16801;53.562;10.038;2023-07-24T08:53:20;4.78;;;4.38;;
29940;SDS011;16801;53.562;10.038;2023-07-24T08:56:42;4.78;;;4.38;;
29940;SDS011;16801;53.562;10.038;2023-07-24T09:00:07;4.65;;;4.25;;
29940;SDS011;16801;53.562;10.038;2023-07-24T09:03:30;5.32;;;4.82;;
29940;SDS011;16801;53.562;10.038;2023-07-24T09:06:52;4.65;;;4.20;;
29940;SDS011;16801;53.562;10.038;2023-07-24T09:10:14;5.28;;;4.80;;
29940;SDS011;16801;53.562;10.038;2023-07-24T09:13:36;4.88;;;4.47;;
29940;SDS011;16801;53.562;10.038;2023-07-24T09:17:02;4.20;;;3.85;;
29940;SDS011;16801;53.562;10.038;2023-07-24T09:20:37;5.25;;;4.60;;
29940;SDS011;16801;53.562;10.038;2023-07-24T09:24:08;5.25;;;4.85;;
29940;SDS011;16801;53.562;10.038;2023-07-24T09:27:31;4.60;;;4.20;;
29940;SDS011;16801;53.562;10.038;2023-07-24T09:30:52;5.43;;;4.97;;
29940;SDS011;16801;53.562;10.038;2023-07-24T09:34:15;5.65;;;4.95;;
29940;SDS011;16801;53.562;10.038;2023-07-24T09:37:39;5.43;;;5.00;;
29940;SDS011;16801;53.562;10.038;2023-07-24T09:41:00;4.82;;;3.80;;
29940;SDS011;16801;53.562;10.038;2023-07-24T09:44:24;6.18;;;5.45;;
29940;SDS011;16801;53.562;10.038;2023-07-24T09:47:47;5.85;;;5.38;;
29940;SDS011;16801;53.562;10.038;2023-07-24T09:51:08;5.07;;;4.70;;
29940;SDS011;16801;53.562;10.038;2023-07-24T09:54:35;5.40;;;4.90;;
29940;SDS011;16801;53.562;10.038;2023-07-24T09:58:06;6.47;;;5.90;;
29940;SDS011;16801;53.562;10.038;2023-07-24T10:01:28;5.10;;;4.60;;
29940;SDS011;16801;53.562;10.038;2023-07-24T10:04:50;5.97;;;5.35;;
29940;SDS011;16801;53.562;10.038;2023-07-24T10:08:12;5.00;;;4.47;;
29940;SDS011;16801;53.562;10.038;2023-07-24T10:11:36;4.35;;;4.05;;
29940;SDS011;16801;53.562;10.038;2023-07-24T10:14:57;6.32;;;5.72;;
29940;SDS011;16801;53.562;10.038;2023-07-24T10:18:27;5.22;;;4.82;;
29940;SDS011;16801;53.562;10.038;2023-07-24T10:21:49;4.53;;;4.13;;
29940;SDS011;16801;53.562;10.038;2023-07-24T10:25:12;4.72;;;4.20;;
29940;SDS011;16801;53.562;10.038;2023-07-24T10:28:35;4.47;;;4.15;;
29940;SDS011;16801;53.562;10.038;2023-07-24T10:31:58;5.05;;;4.25;;
29940;SDS011;16801;53.562;10.038;2023-07-24T10:35:18;6.72;;;5.72;;
29940;SDS011;16801;53.562;10.038;2023-07-24T10:38:42;4.05;;;3.65;;
29940;SDS011;16801;53.562;10.038;2023-07-24T10:42:04;5.38;;;4.88;;
29940;SDS011;16801;53.562;10.038;2023-07-24T10:45:37;5.38;;;4.88;;
29940;SDS011;16801;53.562;10.038;2023-07-24T10:49:00;5.38;;;4.88;;
29940;SDS011;16801;53.562;10.038;2023-07-24T10:52:27;5.40;;;4.93;;
29940;SDS011;16801;53.562;10.038;2023-07-24T10:55:49;4.97;;;4.50;;
29940;SDS011;16801;53.562;10.038;2023-07-24T10:59:11;5.32;;;4.82;;
29940;SDS011;16801;53.562;10.038;2023-07-24T11:02:35;4.47;;;4.10;;
29940;SDS011;16801;53.562;10.038;2023-07-24T11:05:57;4.68;;;4.28;;
29940;SDS011;16801;53.562;10.038;2023-07-24T11:09:19;4.60;;;4.20;;
29940;SDS011;16801;53.562;10.038;2023-07-24T11:12:40;6.25;;;4.03;;
29940;SDS011;16801;53.562;10.038;2023-07-24T11:16:03;4.68;;;4.28;;
29940;SDS011;16801;53.562;10.038;2023-07-24T11:19:27;4.18;;;3.88;;
29940;SDS011;16801;53.562;10.038;2023-07-24T11:22:48;3.25;;;3.00;;
29940;SDS011;16801;53.562;10.038;2023-07-24T11:26:10;4.07;;;3.70;;
29940;SDS011;16801;53.562;10.038;2023-07-24T11:29:32;3.42;;;3.13;;
29940;SDS011;16801;53.562;10.038;2023-07-24T11:32:53;4.88;;;4.10;;
29940;SDS011;16801;53.562;10.038;2023-07-24T11:36:17;4.72;;;4.00;;
29940;SDS011;16801;53.562;10.038;2023-07-24T11:39:39;4.13;;;3.72;;
29940;SDS011;16801;53.562;10.038;2023-07-24T11:43:01;4.22;;;3.75;;
29940;SDS011;16801;53.562;10.038;2023-07-24T11:46:24;4.75;;;4.35;;
29940;SDS011;16801;53.562;10.038;2023-07-24T11:49:55;3.08;;;2.78;;
29940;SDS011;16801;53.562;10.038;2023-07-24T11:53:20;3.55;;;3.25;;
29940;SDS011;16801;53.562;10.038;2023-07-24T11:56:42;3.88;;;3.47;;
29940;SDS011;16801;53.562;10.038;2023-07-24T12:00:04;3.60;;;3.30;;
29940;SDS011;16801;53.562;10.038;2023-07-24T12:03:28;3.42;;;3.22;;
29940;SDS011;16801;53.562;10.038;2023-07-24T12:06:49;4.32;;;3.50;;
29940;SDS011;16801;53.562;10.038;2023-07-24T12:10:12;4.10;;;3.50;;
29940;SDS011;16801;53.562;10.038;2023-07-24T12:13:34;3.88;;;3.55;;
29940;SDS011;16801;53.562;10.038;2023-07-24T12:17:00;3.33;;;3.03;;
29940;SDS011;16801;53.562;10.038;2023-07-24T12:20:22;4.25;;;3.92;;
29940;SDS011;16801;53.562;10.038;2023-07-24T12:23:44;3.92;;;3.63;;
29940;SDS011;16801;53.562;10.038;2023-07-24T12:27:07;3.25;;;3.00;;
29940;SDS011;16801;53.562;10.038;2023-07-24T12:30:28;3.47;;;3.17;;
29940;SDS011;16801;53.562;10.038;2023-07-24T12:33:50;3.90;;;3.60;;
29940;SDS011;16801;53.562;10.038;2023-07-24T12:37:11;4.45;;;3.50;;
29940;SDS011;16801;53.562;10.038;2023-07-24T12:40:32;3.38;;;3.17;;
29940;SDS011;16801;53.562;10.038;2023-07-24T12:43:54;3.22;;;2.92;;
29940;SDS011;16801;53.562;10.038;2023-07-24T12:47:16;3.55;;;3.25;;
29940;SDS011;16801;53.562;10.038;2023-07-24T12:50:37;4.10;;;3.03;;
29940;SDS011;16801;53.562;10.038;2023-07-24T12:53:59;3.72;;;3.42;;
29940;SDS011;16801;53.562;10.038;2023-07-24T12:57:20;4.00;;;3.42;;
29940;SDS011;16801;53.562;10.038;2023-07-24T13:00:43;4.15;;;3.75;;
29940;SDS011;16801;53.562;10.038;2023-07-24T13:04:04;4.78;;;3.58;;
29940;SDS011;16801;53.562;10.038;2023-07-24T13:07:26;5.80;;;3.47;;
29940;SDS011;16801;53.562;10.038;2023-07-24T13:10:48;3.47;;;3.17;;
29940;SDS011;16801;53.562;10.038;2023-07-24T13:14:09;3.92;;;3.42;;
29940;SDS011;16801;53.562;10.038;2023-07-24T13:17:32;3.08;;;2.88;;
29940;SDS011;16801;53.562;10.038;2023-07-24T13:20:53;3.17;;;2.88;;
29940;SDS011;16801;53.562;10.038;2023-07-24T13:24:14;3.58;;;3.28;;
29940;SDS011;16801;53.562;10.038;2023-07-24T13:27:36;3.40;;;3.03;;
29940;SDS011;16801;53.562;10.038;2023-07-24T13:30:57;3.22;;;2.95;;
29940;SDS011;16801;53.562;10.038;2023-07-24T13:34:20;3.00;;;2.75;;
29940;SDS011;16801;53.562;10.038;2023-07-24T13:37:42;2.55;;;2.35;;
29940;SDS011;16801;53.562;10.038;2023-07-24T13:41:04;2.97;;;2.78;;
29940;SDS011;16801;53.562;10.038;2023-07-24T13:44:26;3.00;;;2.78;;
29940;SDS011;16801;53.562;10.038;2023-07-24T13:47:47;2.67;;;2.47;;
29940;SDS011;16801;53.562;10.038;2023-07-24T13:51:10;3.50;;;2.88;;
29940;SDS011;16801;53.562;10.038;2023-07-24T13:54:31;4.57;;;3.45;;
29940;SDS011;16801;53.562;10.038;2023-07-24T13:57:52;4.07;;;2.88;;
29940;SDS011;16801;53.562;10.038;2023-07-24T14:01:13;3.65;;;3.35;;
29940;SDS011;16801;53.562;10.038;2023-07-24T14:04:34;4.43;;;3.42;;
29940;SDS011;16801;53.562;10.038;2023-07-24T14:07:57;3.00;;;2.80;;
29940;SDS011;16801;53.562;10.038;2023-07-24T14:11:18;3.92;;;2.90;;
29940;SDS011;16801;53.562;10.038;2023-07-24T14:14:40;3.85;;;3.42;;
29940;SDS011;16801;53.562;10.038;2023-07-24T14:18:01;2.88;;;2.67;;
29940;SDS011;16801;53.562;10.038;2023-07-24T14:21:23;4.03;;;3.13;;
29940;SDS011;16801;53.562;10.038;2023-07-24T14:24:46;22.02;;;6.05;;
29940;SDS011;16801;53.562;10.038;2023-07-24T14:28:07;3.75;;;3.00;;
29940;SDS011;16801;53.562;10.038;2023-07-24T14:31:28;3.25;;;2.95;;
29940;SDS011;16801;53.562;10.038;2023-07-24T14:34:50;3.22;;;3.03;;
29940;SDS011;16801;53.562;10.038;2023-07-24T14:38:12;3.08;;;2.85;;
29940;SDS011;16801;53.562;10.038;2023-07-24T14:41:35;2.83;;;2.63;;
29940;SDS011;16801;53.562;10.038;2023-07-24T14:44:56;3.83;;;2.85;;
29940;SDS011;16801;53.562;10.038;2023-07-24T14:48:21;3.08;;;2.70;;
29940;SDS011;16801;53.562;10.038;2023-07-24T14:51:43;3.42;;;3.08;;
29940;SDS011;16801;53.562;10.038;2023-07-24T14:55:04;3.25;;;3.05;;
29940;SDS011;16801;53.562;10.038;2023-07-24T14:58:27;3.38;;;3.08;;
29940;SDS011;16801;53.562;10.038;2023-07-24T15:01:50;4.03;;;3.63;;
29940;SDS011;16801;53.562;10.038;2023-07-24T15:05:12;3.58;;;3.28;;
29940;SDS011;16801;53.562;10.038;2023-07-24T15:08:33;3.97;;;3.67;;
29940;SDS011;16801;53.562;10.038;2023-07-24T15:11:55;3.10;;;2.88;;
29940;SDS011;16801;53.562;10.038;2023-07-24T15:15:19;3.05;;;2.80;;
29940;SDS011;16801;53.562;10.038;2023-07-24T15:18:40;3.90;;;3.50;;
29940;SDS011;16801;53.562;10.038;2023-07-24T15:22:01;4.07;;;3.67;;
29940;SDS011;16801;53.562;10.038;2023-07-24T15:25:23;6.78;;;3.95;;
29940;SDS011;16801;53.562;10.038;2023-07-24T15:28:44;4.40;;;4.00;;
29940;SDS011;16801;53.562;10.038;2023-07-24T15:32:07;3.67;;;3.38;;
29940;SDS011;16801;53.562;10.038;2023-07-24T15:35:28;4.63;;;4.22;;
29940;SDS011;16801;53.562;10.038;2023-07-24T15:38:49;4.00;;;2.83;;
29940;SDS011;16801;53.562;10.038;2023-07-24T15:42:11;1.77;;;1.67;;
29940;SDS011;16801;53.562;10.038;2023-07-24T15:45:32;2.08;;;1.88;;
29940;SDS011;16801;53.562;10.038;2023-07-24T15:48:56;2.85;;;2.22;;
29940;SDS011;16801;53.562;10.038;2023-07-24T15:52:21;2.75;;;1.90;;
29940;SDS011;16801;53.562;10.038;2023-07-24T15:55:58;3.25;;;2.28;;
29940;SDS011;16801;53.562;10.038;2023-07-24T15:59:42;3.67;;;2.10;;
29940;SDS011;16801;53.562;10.038;2023-07-24T16:03:03;3.15;;;1.67;;
29940;SDS011;16801;53.562;10.038;2023-07-24T16:06:27;2.08;;;1.48;;
29940;SDS011;16801;53.562;10.038;2023-07-24T16:09:48;1.75;;;1.50;;
29940;SDS011;16801;53.562;10.038;2023-07-24T16:13:10;2.85;;;2.03;;
29940;SDS011;16801;53.562;10.038;2023-07-24T16:16:31;3.28;;;2.30;;
29940;SDS011;16801;53.562;10.038;2023-07-24T16:19:52;3.33;;;2.55;;
29940;SDS011;16801;53.562;10.038;2023-07-24T16:23:14;4.95;;;3.78;;
29940;SDS011;16801;53.562;10.038;2023-07-24T16:26:36;3.70;;;2.90;;
29940;SDS011;16801;53.562;10.038;2023-07-24T16:29:57;4.80;;;3.20;;
29940;SDS011;16801;53.562;10.038;2023-07-24T16:33:18;4.70;;;2.70;;
29940;SDS011;16801;53.562;10.038;2023-07-24T16:36:41;4.18;;;3.78;;
29940;SDS011;16801;53.562;10.038;2023-07-24T16:40:04;11.50;;;10.18;;
29940;SDS011;16801;53.562;10.038;2023-07-24T16:43:26;13.02;;;11.48;;
29940;SDS011;16801;53.562;10.038;2023-07-24T16:46:47;9.30;;;5.68;;
29940;SDS011;16801;53.562;10.038;2023-07-24T16:50:10;4.57;;;3.92;;
29940;SDS011;16801;53.562;10.038;2023-07-24T16:53:44;10.82;;;9.57;;
29940;SDS011;16801;53.562;10.038;2023-07-24T16:57:07;6.60;;;4.75;;
29940;SDS011;16801;53.562;10.038;2023-07-24T17:00:28;9.02;;;7.05;;
29940;SDS011;16801;53.562;10.038;2023-07-24T17:03:58;6.70;;;4.75;;
29940;SDS011;16801;53.562;10.038;2023-07-24T17:11:32;11.02;;;8.15;;
29940;SDS011;16801;53.562;10.038;2023-07-24T17:14:53;18.95;;;14.55;;
29940;SDS011;16801;53.562;10.038;2023-07-24T17:18:15;10.60;;;7.95;;
29940;SDS011;16801;53.562;10.038;2023-07-24T17:21:36;18.02;;;9.90;;
29940;SDS011;16801;53.562;10.038;2023-07-24T17:24:58;5.60;;;5.07;;
29940;SDS011;16801;53.562;10.038;2023-07-24T17:28:21;3.72;;;2.25;;
29940;SDS011;16801;53.562;10.038;2023-07-24T17:31:42;4.53;;;3.45;;
29940;SDS011;16801;53.562;10.038;2023-07-24T17:35:05;8.13;;;3.53;;
29940;SDS011;16801;53.562;10.038;2023-07-24T17:38:32;2.90;;;2.60;;
29940;SDS011;16801;53.562;10.038;2023-07-24T17:42:03;3.22;;;2.95;;
29940;SDS011;16801;53.562;10.038;2023-07-24T17:45:33;4.43;;;3.70;;
29940;SDS011;16801;53.562;10.038;2023-07-24T17:49:06;2.88;;;2.63;;
29940;SDS011;16801;53.562;10.038;2023-07-24T17:52:27;3.42;;;2.40;;
29940;SDS011;16801;53.562;10.038;2023-07-24T17:55:48;4.00;;;2.95;;
29940;SDS011;16801;53.562;10.038;2023-07-24T17:59:09;12.65;;;9.27;;
29940;SDS011;16801;53.562;10.038;2023-07-24T18:02:32;19.75;;;15.98;;
29940;SDS011;16801;53.562;10.038;2023-07-24T18:05:53;14.68;;;12.15;;
29940;SDS011;16801;53.562;10.038;2023-07-24T18:09:17;14.10;;;12.63;;
29940;SDS011;16801;53.562;10.038;2023-07-24T18:12:39;2.75;;;2.55;;
29940;SDS011;16801;53.562;10.038;2023-07-24T18:16:01;7.88;;;7.00;;
29940;SDS011;16801;53.562;10.038;2023-07-24T18:19:24;10.55;;;9.05;;
29940;SDS011;16801;53.562;10.038;2023-07-24T18:22:50;8.15;;;6.85;;
29940;SDS011;16801;53.562;10.038;2023-07-24T18:26:12;5.90;;;4.32;;
29940;SDS011;16801;53.562;10.038;2023-07-24T18:29:33;8.50;;;5.32;;
29940;SDS011;16801;53.562;10.038;2023-07-24T18:32:58;8.05;;;5.47;;
29940;SDS011;16801;53.562;10.038;2023-07-24T18:36:23;6.57;;;3.53;;
29940;SDS011;16801;53.562;10.038;2023-07-24T18:39:44;7.18;;;6.28;;
29940;SDS011;16801;53.562;10.038;2023-07-24T18:43:08;5.00;;;4.57;;
29940;SDS011;16801;53.562;10.038;2023-07-24T18:46:30;4.22;;;3.45;;
29940;SDS011;16801;53.562;10.038;2023-07-24T18:49:51;9.20;;;4.20;;
29940;SDS011;16801;53.562;10.038;2023-07-24T18:53:15;3.03;;;2.70;;
29940;SDS011;16801;53.562;10.038;2023-07-24T18:56:38;5.13;;;4.65;;
29940;SDS011;16801;53.562;10.038;2023-07-24T18:59:59;6.47;;;5.68;;
29940;SDS011;16801;53.562;10.038;2023-07-24T19:03:20;3.40;;;3.10;;
29940;SDS011;16801;53.562;10.038;2023-07-24T19:06:42;4.10;;;2.63;;
29940;SDS011;16801;53.562;10.038;2023-07-24T19:10:05;5.32;;;3.90;;
29940;SDS011;16801;53.562;10.038;2023-07-24T19:13:29;2.63;;;2.33;;
29940;SDS011;16801;53.562;10.038;2023-07-24T19:16:53;3.42;;;3.13;;
29940;SDS011;16801;53.562;10.038;2023-07-24T19:20:14;2.90;;;2.70;;
29940;SDS011;16801;53.562;10.038;2023-07-24T19:23:36;2.53;;;2.33;;
29940;SDS011;16801;53.562;10.038;2023-07-24T19:26:58;3.75;;;3.40;;
29940;SDS011;16801;53.562;10.038;2023-07-24T19:30:19;8.52;;;3.13;;
29940;SDS011;16801;53.562;10.038;2023-07-24T19:33:41;3.38;;;3.08;;
29940;SDS011;16801;53.562;10.038;2023-07-24T19:37:02;4.18;;;2.92;;
29940;SDS011;16801;53.562;10.038;2023-07-24T19:40:24;2.72;;;2.53;;
29940;SDS011;16801;53.562;10.038;2023-07-24T19:43:52;3.10;;;2.83;;
29940;SDS011;16801;53.562;10.038;2023-07-24T19:47:16;3.25;;;2.95;;
29940;SDS011;16801;53.562;10.038;2023-07-24T19:50:38;3.42;;;3.15;;
29940;SDS011;16801;53.562;10.038;2023-07-24T19:54:08;4.43;;;3.13;;
29940;SDS011;16801;53.562;10.038;2023-07-24T19:57:29;3.30;;;3.10;;
29940;SDS011;16801;53.562;10.038;2023-07-24T20:00:52;3.45;;;3.15;;
29940;SDS011;16801;53.562;10.038;2023-07-24T20:04:14;3.97;;;3.38;;